createdAt,value
2018-05-14T00:00:44.682Z,100617.17
2018-05-14T00:03:10.645Z,100622.70
2018-05-14T00:05:36.623Z,100611.70
2018-05-14T00:08:02.591Z,100607.24
2018-05-14T00:10:28.542Z,100611.71
2018-05-14T00:12:54.520Z,100599.36
2018-05-14T00:15:20.485Z,100600.05
2018-05-14T00:17:46.456Z,100600.55
2018-05-14T00:20:12.462Z,100601.88
2018-05-14T00:22:38.424Z,100600.75
2018-05-14T00:25:04.429Z,100600.10
2018-05-14T00:27:30.377Z,100594.90
2018-05-14T00:29:56.338Z,100592.14
2018-05-14T00:32:22.322Z,100587.08
2018-05-14T00:34:48.284Z,100585.63
2018-05-14T00:37:14.277Z,100584.72
2018-05-14T00:39:40.255Z,100583.30
2018-05-14T00:42:06.232Z,100584.62
2018-05-14T00:44:32.212Z,100583.91
2018-05-14T00:46:58.283Z,100582.15
2018-05-14T00:49:24.286Z,100577.36
2018-05-14T00:51:50.310Z,100570.83
2018-05-14T00:54:16.277Z,100569.84
2018-05-14T00:56:42.253Z,100576.30
2018-05-14T00:59:08.214Z,100574.13
2018-05-14T01:01:34.203Z,100578.25
2018-05-14T01:04:00.172Z,100575.45
2018-05-14T01:06:26.170Z,100572.90
2018-05-14T01:08:52.234Z,100568.63
2018-05-14T01:11:18.200Z,100570.11
2018-05-14T01:13:44.185Z,100565.23
2018-05-14T01:16:10.153Z,100566.08
2018-05-14T01:18:36.127Z,100559.98
2018-05-14T01:21:02.090Z,100564.25
2018-05-14T01:23:28.071Z,100568.14
2018-05-14T01:25:54.028Z,100566.19
2018-05-14T01:28:19.989Z,100562.80
2018-05-14T01:30:45.970Z,100565.27
2018-05-14T01:33:11.956Z,100563.54
2018-05-14T01:35:37.950Z,100563.30
2018-05-14T01:38:03.904Z,100561.83
2018-05-14T01:40:29.893Z,100557.76
2018-05-14T01:42:55.865Z,100558.09
2018-05-14T01:45:21.873Z,100553.95
2018-05-14T01:47:47.821Z,100555.75
2018-05-14T01:50:13.846Z,100556.05
2018-05-14T01:52:39.842Z,100559.04
2018-05-14T01:55:05.799Z,100556.05
2018-05-14T01:57:31.799Z,100552.84
2018-05-14T01:59:57.757Z,100548.38
2018-05-14T02:02:23.756Z,100549.03
2018-05-14T02:04:49.712Z,100551.02
2018-05-14T02:07:15.698Z,100549.61
2018-05-14T02:09:41.674Z,100547.16
2018-05-14T02:12:07.653Z,100549.89
2018-05-14T02:14:33.644Z,100555.77
2018-05-14T02:16:59.607Z,100546.75
2018-05-14T02:19:25.592Z,100547.16
2018-05-14T02:21:51.575Z,100545.77
2018-05-14T02:24:17.569Z,100543.53
2018-05-14T02:26:43.532Z,100541.95
2018-05-14T02:29:09.513Z,100534.52
2018-05-14T02:31:35.493Z,100533.52
2018-05-14T02:34:01.451Z,100533.36
2018-05-14T02:36:27.409Z,100544.28
2018-05-14T02:38:53.380Z,100548.70
2018-05-14T02:41:19.333Z,100548.52
2018-05-14T02:43:45.300Z,100550.35
2018-05-14T02:46:11.271Z,100545.21
2018-05-14T02:48:39.329Z,100547.70
2018-05-14T02:51:05.408Z,100557.80
2018-05-14T02:53:31.374Z,100551.94
2018-05-14T02:55:57.337Z,100547.81
2018-05-14T02:58:23.309Z,100541.04
2018-05-14T03:00:49.259Z,100546.18
2018-05-14T03:03:15.263Z,100539.87
2018-05-14T03:05:41.227Z,100538.61
2018-05-14T03:08:07.182Z,100540.72
2018-05-14T03:10:33.220Z,100540.48
2018-05-14T03:12:59.121Z,100538.08
2018-05-14T03:15:25.102Z,100539.81
2018-05-14T03:17:51.051Z,100534.22
2018-05-14T03:20:17.018Z,100535.34
2018-05-14T03:22:42.984Z,100543.19
2018-05-14T03:25:08.941Z,100538.13
2018-05-14T03:27:34.898Z,100535.47
2018-05-14T03:30:00.905Z,100540.09
2018-05-14T03:32:26.864Z,100538.77
2018-05-14T03:34:52.842Z,100535.70
2018-05-14T03:37:18.801Z,100530.25
2018-05-14T03:39:44.833Z,100524.20
2018-05-14T03:42:10.758Z,100527.20
2018-05-14T03:44:36.717Z,100523.91
2018-05-14T03:47:02.713Z,100528.63
2018-05-14T03:49:28.668Z,100528.42
2018-05-14T03:51:54.628Z,100521.40
2018-05-14T03:54:20.591Z,100524.42
2018-05-14T03:56:46.544Z,100520.77
2018-05-14T03:59:12.510Z,100510.75
2018-05-14T04:01:38.465Z,100509.78
2018-05-14T04:04:04.438Z,100511.69
2018-05-14T04:06:33.922Z,100512.07
2018-05-14T04:08:59.900Z,100515.70
2018-05-14T04:11:25.858Z,100514.13
2018-05-14T04:13:51.838Z,100519.08
2018-05-14T04:16:17.813Z,100525.80
2018-05-14T04:18:43.802Z,100523.30
2018-05-14T04:21:09.791Z,100523.87
2018-05-14T04:23:35.753Z,100524.87
2018-05-14T04:26:01.704Z,100520.40
2018-05-14T04:28:27.667Z,100519.59
2018-05-14T04:30:53.653Z,100529.52
2018-05-14T04:33:19.621Z,100524.29
2018-05-14T04:35:45.608Z,100523.23
2018-05-14T04:38:11.563Z,100530.95
2018-05-14T04:40:41.082Z,100522.09
2018-05-14T04:43:07.040Z,100525.88
2018-05-14T04:45:33.004Z,100523.98
2018-05-14T04:47:58.960Z,100517.72
2018-05-14T04:50:24.947Z,100513.55
2018-05-14T04:52:50.925Z,100515.44
2018-05-14T04:55:16.940Z,100508.86
2018-05-14T04:57:42.894Z,100503.71
2018-05-14T05:00:08.851Z,100515.52
2018-05-14T05:02:34.848Z,100511.39
2018-05-14T05:05:00.807Z,100519.59
2018-05-14T05:07:26.788Z,100527.93
2018-05-14T05:09:52.750Z,100524.46
2018-05-14T05:12:18.707Z,100531.40
2018-05-14T05:14:44.681Z,100537.02
2018-05-14T05:17:10.690Z,100530.09
2018-05-14T05:19:36.608Z,100529.92
2018-05-14T05:22:02.577Z,100530.13
2018-05-14T05:24:28.551Z,100531.36
2018-05-14T05:26:54.530Z,100533.31
2018-05-14T05:29:20.507Z,100538.13
2018-05-14T05:31:46.490Z,100533.41
2018-05-14T05:34:12.460Z,100534.73
2018-05-14T05:36:38.441Z,100538.61
2018-05-14T05:39:04.398Z,100532.40
2018-05-14T05:41:30.390Z,100532.69
2018-05-14T05:43:56.355Z,100536.61
2018-05-14T05:46:22.305Z,100534.21
2018-05-14T05:48:48.288Z,100536.46
2018-05-14T05:51:14.251Z,100535.80
2018-05-14T05:53:40.256Z,100532.42
2018-05-14T05:56:06.246Z,100528.51
2018-05-14T05:58:32.204Z,100529.42
2018-05-14T06:00:58.170Z,100530.33
2018-05-14T06:03:24.133Z,100529.57
2018-05-14T06:05:50.086Z,100535.89
2018-05-14T06:08:16.064Z,100539.26
2018-05-14T06:10:42.123Z,100532.33
2018-05-14T06:13:08.082Z,100532.78
2018-05-14T06:18:06.274Z,100521.35
2018-05-14T06:20:32.267Z,100521.40
2018-05-14T06:22:58.224Z,100517.93
2018-05-14T06:25:24.186Z,100517.37
2018-05-14T06:27:50.153Z,100523.91
2018-05-14T06:30:16.105Z,100525.31
2018-05-14T06:32:42.085Z,100535.64
2018-05-14T06:35:08.038Z,100543.99
2018-05-14T06:37:34.008Z,100547.80
2018-05-14T06:40:00.010Z,100551.41
2018-05-14T06:42:25.985Z,100558.53
2018-05-14T06:44:51.951Z,100555.06
2018-05-14T06:47:18.017Z,100556.88
2018-05-14T06:49:43.966Z,100554.47
2018-05-14T06:52:09.898Z,100556.61
2018-05-14T06:54:35.854Z,100556.41
2018-05-14T06:57:01.819Z,100551.84
2018-05-14T06:59:27.764Z,100551.41
2018-05-14T07:01:53.722Z,100553.67
2018-05-14T07:06:56.354Z,100546.84
2018-05-14T07:09:22.335Z,100552.20
2018-05-14T07:11:48.305Z,100549.81
2018-05-14T07:14:14.268Z,100554.88
2018-05-14T07:16:40.270Z,100563.39
2018-05-14T07:19:06.226Z,100566.53
2018-05-14T07:21:32.188Z,100574.05
2018-05-14T07:23:58.132Z,100574.48
2018-05-14T07:26:24.104Z,100576.70
2018-05-14T07:28:50.240Z,100572.97
2018-05-14T07:31:16.045Z,100568.85
2018-05-14T07:33:42.003Z,100568.91
2018-05-14T07:36:07.980Z,100569.77
2018-05-14T07:38:33.955Z,100569.59
2018-05-14T07:41:00.172Z,100566.19
2018-05-14T07:43:25.879Z,100571.56
2018-05-14T07:45:51.834Z,100570.66
2018-05-14T07:48:17.824Z,100571.66
2018-05-14T07:50:43.792Z,100578.61
2018-05-14T07:53:09.852Z,100578.98
2018-05-14T07:55:35.777Z,100578.98
2018-05-14T07:58:01.729Z,100578.48
2018-05-14T08:00:27.734Z,100580.55
2018-05-14T08:02:53.719Z,100578.38
2018-05-14T08:05:19.721Z,100585.43
2018-05-14T08:07:45.679Z,100580.13
2018-05-14T08:10:11.645Z,100578.41
2018-05-14T08:12:37.605Z,100571.94
2018-05-14T08:15:03.570Z,100576.87
2018-05-14T08:17:29.521Z,100577.95
2018-05-14T08:19:55.511Z,100573.93
2018-05-14T08:22:21.493Z,100573.69
2018-05-14T08:24:47.470Z,100572.92
2018-05-14T08:27:13.445Z,100569.44
2018-05-14T08:29:39.416Z,100564.07
2018-05-14T08:32:05.386Z,100565.73
2018-05-14T08:34:31.352Z,100572.18
2018-05-14T08:36:57.322Z,100568.20
2018-05-14T08:39:23.297Z,100564.25
2018-05-14T08:41:49.411Z,100561.52
2018-05-14T08:44:15.257Z,100562.77
2018-05-14T08:46:41.222Z,100564.89
2018-05-14T08:49:07.465Z,100563.75
2018-05-14T08:51:33.461Z,100565.39
2018-05-14T08:53:59.465Z,100566.14
2018-05-14T08:56:26.413Z,100562.43
2018-05-14T08:58:52.394Z,100569.20
2018-05-14T09:01:18.377Z,100559.07
2018-05-14T09:03:44.354Z,100560.38
2018-05-14T09:06:10.314Z,100564.16
2018-05-14T09:08:36.295Z,100555.20
2018-05-14T09:11:02.233Z,100552.64
2018-05-14T09:13:28.182Z,100552.22
2018-05-14T09:15:54.172Z,100558.55
2018-05-14T09:18:20.141Z,100555.59
2018-05-14T09:20:46.121Z,100556.20
2018-05-14T09:23:12.081Z,100562.13
2018-05-14T09:25:38.041Z,100564.94
2018-05-14T09:28:04.003Z,100569.16
2018-05-14T09:30:29.966Z,100572.00
2018-05-14T09:32:55.929Z,100567.12
2018-05-14T09:35:21.996Z,100563.14
2018-05-14T09:37:47.955Z,100561.30
2018-05-14T09:40:13.916Z,100566.36
2018-05-14T09:42:39.906Z,100557.02
2018-05-14T09:45:05.883Z,100562.44
2018-05-14T09:47:31.857Z,100556.42
2018-05-14T09:49:57.903Z,100564.05
2018-05-14T09:52:23.839Z,100560.08
2018-05-14T09:54:49.821Z,100558.92
2018-05-14T09:57:15.889Z,100560.48
2018-05-14T09:59:41.800Z,100557.93
2018-05-14T10:02:07.778Z,100548.89
2018-05-14T10:04:33.871Z,100552.14
2018-05-14T10:06:59.848Z,100552.55
2018-05-14T10:09:25.800Z,100557.76
2018-05-14T10:11:51.812Z,100553.71
2018-05-14T10:14:17.798Z,100557.24
2018-05-14T10:16:43.786Z,100546.24
2018-05-14T10:19:09.727Z,100550.31
2018-05-14T10:21:35.715Z,100548.81
2018-05-14T10:24:01.804Z,100543.70
2018-05-14T10:26:27.642Z,100550.00
2018-05-14T10:28:53.598Z,100548.40
2018-05-14T10:31:19.568Z,100551.38
2018-05-14T10:33:45.558Z,100551.55
2018-05-14T10:36:11.539Z,100552.30
2018-05-14T10:38:37.540Z,100546.52
2018-05-14T10:41:03.506Z,100545.11
2018-05-14T10:43:29.480Z,100545.44
2018-05-14T10:45:55.480Z,100540.14
2018-05-14T10:48:21.485Z,100544.53
2018-05-14T10:50:47.477Z,100548.82
2018-05-14T10:53:13.471Z,100541.89
2018-05-14T10:55:39.424Z,100547.17
2018-05-14T10:58:05.596Z,100547.90
2018-05-14T11:00:31.567Z,100546.50
2018-05-14T11:02:57.532Z,100549.75
2018-05-14T11:05:23.537Z,100539.39
2018-05-14T11:07:49.500Z,100544.37
2018-05-14T11:10:15.479Z,100538.80
2018-05-14T11:12:41.441Z,100539.64
2018-05-14T11:15:07.421Z,100533.11
2018-05-14T11:17:33.388Z,100540.23
2018-05-14T11:19:59.367Z,100532.17
2018-05-14T11:22:25.331Z,100525.65
2018-05-14T11:24:51.294Z,100533.77
2018-05-14T11:27:17.262Z,100536.98
2018-05-14T11:29:43.248Z,100533.27
2018-05-14T11:32:09.219Z,100536.73
2018-05-14T11:34:35.207Z,100529.14
2018-05-14T11:37:01.197Z,100531.86
2018-05-14T11:39:27.168Z,100536.23
2018-05-14T11:41:53.180Z,100535.02
2018-05-14T11:44:19.160Z,100537.83
2018-05-14T11:46:45.117Z,100535.16
2018-05-14T11:49:11.175Z,100533.84
2018-05-14T11:51:37.129Z,100531.28
2018-05-14T11:54:03.091Z,100531.38
2018-05-14T11:56:29.064Z,100531.95
2018-05-14T11:58:55.033Z,100530.20
2018-05-14T12:01:20.976Z,100527.80
2018-05-14T12:03:46.987Z,100535.02
2018-05-14T12:06:12.937Z,100535.41
2018-05-14T12:08:38.906Z,100523.77
2018-05-14T12:11:04.882Z,100525.58
2018-05-14T12:15:56.651Z,100524.58
2018-05-14T12:18:22.587Z,100528.06
2018-05-14T12:20:48.563Z,100523.41
2018-05-14T12:23:14.520Z,100514.58
2018-05-14T12:25:40.513Z,100510.09
2018-05-14T12:28:06.555Z,100512.25
2018-05-14T12:30:32.534Z,100507.77
2018-05-14T12:32:58.518Z,100517.95
2018-05-14T12:35:24.511Z,100520.27
2018-05-14T12:37:50.512Z,100514.81
2018-05-14T12:40:16.468Z,100522.92
2018-05-14T12:42:42.449Z,100515.78
2018-05-14T12:45:08.418Z,100505.47
2018-05-14T12:47:34.405Z,100507.78
2018-05-14T12:50:00.383Z,100504.07
2018-05-14T12:52:26.345Z,100507.53
2018-05-14T12:54:52.325Z,100506.45
2018-05-14T12:57:18.319Z,100502.73
2018-05-14T12:59:44.278Z,100504.05
2018-05-14T13:02:10.244Z,100501.59
2018-05-14T13:04:36.196Z,100501.50
2018-05-14T13:07:02.216Z,100494.97
2018-05-14T13:09:28.143Z,100500.64
2018-05-14T13:11:59.971Z,100503.81
2018-05-14T13:14:25.944Z,100499.85
2018-05-14T13:16:51.912Z,100502.32
2018-05-14T13:19:17.946Z,100498.18
2018-05-14T13:21:43.852Z,100500.19
2018-05-14T13:24:09.806Z,100492.65
2018-05-14T13:26:35.930Z,100494.80
2018-05-14T13:29:01.875Z,100498.11
2018-05-14T13:31:27.831Z,100497.04
2018-05-14T13:33:53.791Z,100496.54
2018-05-14T13:36:19.773Z,100502.91
2018-05-14T13:38:45.747Z,100499.84
2018-05-14T13:41:11.845Z,100495.12
2018-05-14T13:43:37.802Z,100498.02
2018-05-14T13:46:03.757Z,100495.21
2018-05-14T13:48:29.741Z,100480.81
2018-05-14T13:50:55.710Z,100477.25
2018-05-14T13:53:21.661Z,100475.36
2018-05-14T13:55:47.633Z,100475.02
2018-05-14T13:58:13.585Z,100477.50
2018-05-14T14:00:39.534Z,100476.69
2018-05-14T14:03:05.537Z,100475.83
2018-05-14T14:05:31.495Z,100478.99
2018-05-14T14:07:57.436Z,100470.64
2018-05-14T14:10:23.446Z,100471.77
2018-05-14T14:12:49.431Z,100473.50
2018-05-14T14:15:15.417Z,100472.78
2018-05-14T14:17:41.383Z,100474.22
2018-05-14T14:20:07.450Z,100473.35
2018-05-14T14:22:33.414Z,100469.16
2018-05-14T14:24:59.396Z,100459.12
2018-05-14T14:27:25.349Z,100464.17
2018-05-14T14:29:51.327Z,100466.00
2018-05-14T14:32:17.268Z,100467.89
2018-05-14T14:34:43.241Z,100459.47
2018-05-14T14:37:09.270Z,100470.54
2018-05-14T14:39:35.168Z,100470.61
2018-05-14T14:42:01.205Z,100463.67
2018-05-14T14:44:27.159Z,100471.96
2018-05-14T14:46:53.117Z,100473.03
2018-05-14T14:49:19.101Z,100466.16
2018-05-14T14:51:45.076Z,100467.23
2018-05-14T14:54:11.044Z,100467.39
2018-05-14T14:56:39.140Z,100466.32
2018-05-14T14:59:08.829Z,100472.38
2018-05-14T15:01:34.812Z,100479.06
2018-05-14T15:04:00.763Z,100469.70
2018-05-14T15:06:26.735Z,100473.02
2018-05-14T15:08:52.707Z,100466.89
2018-05-14T15:11:18.670Z,100473.95
2018-05-14T15:13:44.624Z,100464.84
2018-05-14T15:16:10.596Z,100467.98
2018-05-14T15:18:36.565Z,100465.16
2018-05-14T15:21:02.537Z,100462.45
2018-05-14T15:23:28.497Z,100471.11
2018-05-14T15:25:54.475Z,100476.19
2018-05-14T15:28:20.434Z,100468.66
2018-05-14T15:30:46.383Z,100469.38
2018-05-14T15:33:12.337Z,100469.20
2018-05-14T15:35:38.299Z,100464.93
2018-05-14T15:38:04.948Z,100473.35
2018-05-14T15:40:30.953Z,100466.53
2018-05-14T15:42:56.909Z,100465.41
2018-05-14T15:45:22.877Z,100460.80
2018-05-14T15:47:48.849Z,100460.70
2018-05-14T15:50:14.813Z,100459.70
2018-05-14T15:52:40.804Z,100463.52
2018-05-14T15:55:06.766Z,100451.85
2018-05-14T15:57:32.762Z,100445.14
2018-05-14T15:59:58.712Z,100449.36
2018-05-14T16:02:24.674Z,100447.63
2018-05-14T16:04:50.635Z,100449.61
2018-05-14T16:07:16.980Z,100459.04
2018-05-14T16:09:42.941Z,100456.05
2018-05-14T16:12:08.922Z,100455.23
2018-05-14T16:14:38.004Z,100462.86
2018-05-14T16:17:03.976Z,100464.09
2018-05-14T16:19:29.944Z,100463.42
2018-05-14T16:21:56.995Z,100463.92
2018-05-14T16:24:22.960Z,100468.63
2018-05-14T16:26:48.931Z,100474.36
2018-05-14T16:29:14.896Z,100474.52
2018-05-14T16:31:40.887Z,100474.92
2018-05-14T16:34:06.844Z,100480.56
2018-05-14T16:36:32.832Z,100478.48
2018-05-14T16:38:58.796Z,100487.58
2018-05-14T16:41:24.768Z,100486.16
2018-05-14T16:43:50.756Z,100486.84
2018-05-14T16:46:16.714Z,100483.47
2018-05-14T16:48:42.777Z,100489.56
2018-05-14T16:51:08.762Z,100482.71
2018-05-14T16:53:34.727Z,100482.39
2018-05-14T16:56:00.739Z,100482.14
2018-05-14T16:58:26.704Z,100486.92
2018-05-14T17:00:56.446Z,100493.23
2018-05-14T17:03:22.443Z,100487.43
2018-05-14T17:05:54.135Z,100489.07
2018-05-14T17:08:20.143Z,100490.97
2018-05-14T17:10:46.091Z,100486.68
2018-05-14T17:13:12.077Z,100497.25
2018-05-14T17:15:38.045Z,100498.02
2018-05-14T17:18:04.019Z,100493.60
2018-05-14T17:20:29.986Z,100490.57
2018-05-14T17:23:01.300Z,100492.21
2018-05-14T17:25:27.279Z,100496.03
2018-05-14T17:27:53.255Z,100494.20
2018-05-14T17:30:19.228Z,100489.47
2018-05-14T17:32:45.196Z,100497.52
2018-05-14T17:35:11.157Z,100492.21
2018-05-14T17:37:37.112Z,100494.80
2018-05-14T17:40:03.064Z,100499.19
2018-05-14T17:42:29.076Z,100496.42
2018-05-14T17:44:55.033Z,100501.23
2018-05-14T17:47:20.995Z,100503.72
2018-05-14T17:49:46.977Z,100508.63
2018-05-14T17:52:12.945Z,100514.89
2018-05-14T17:54:38.904Z,100516.05
2018-05-14T17:57:04.839Z,100512.58
2018-05-14T17:59:30.861Z,100513.31
2018-05-14T18:01:56.825Z,100510.50
2018-05-14T18:04:22.783Z,100511.52
2018-05-14T18:06:48.758Z,100510.41
2018-05-14T18:09:14.741Z,100512.83
2018-05-14T18:11:40.739Z,100514.38
2018-05-14T18:14:06.716Z,100516.87
2018-05-14T18:16:32.669Z,100514.80
2018-05-14T18:18:58.626Z,100514.66
2018-05-14T18:21:24.608Z,100517.53
2018-05-14T18:23:50.592Z,100515.47
2018-05-14T18:26:16.548Z,100519.85
2018-05-14T18:28:42.520Z,100522.59
2018-05-14T18:31:11.818Z,100519.05
2018-05-14T18:33:37.772Z,100520.86
2018-05-14T18:36:03.745Z,100531.67
2018-05-14T18:38:29.704Z,100527.86
2018-05-14T18:40:55.707Z,100533.44
2018-05-14T18:43:21.748Z,100534.34
2018-05-14T18:45:47.734Z,100535.42
2018-05-14T18:48:13.695Z,100546.66
2018-05-14T18:50:39.683Z,100537.24
2018-05-14T18:53:05.645Z,100553.22
2018-05-14T18:55:31.622Z,100551.14
2018-05-14T18:57:57.613Z,100560.41
2018-05-14T19:00:23.584Z,100561.48
2018-05-14T19:02:49.545Z,100563.56
2018-05-14T19:05:15.520Z,100568.05
2018-05-14T19:07:42.373Z,100570.26
2018-05-14T19:10:08.347Z,100571.01
2018-05-14T19:12:34.404Z,100579.87
2018-05-14T19:15:00.305Z,100573.50
2018-05-14T19:17:26.269Z,100579.11
2018-05-14T19:19:52.257Z,100579.59
2018-05-14T19:22:18.301Z,100584.84
2018-05-14T19:24:44.237Z,100584.75
2018-05-14T19:27:10.199Z,100583.99
2018-05-14T19:29:36.173Z,100584.41
2018-05-14T19:32:02.261Z,100588.16
2018-05-14T19:34:28.237Z,100588.38
2018-05-14T19:39:27.076Z,100599.37
2018-05-14T19:41:53.041Z,100603.72
2018-05-14T19:44:23.028Z,100605.77
2018-05-14T19:46:48.988Z,100608.01
2018-05-14T19:49:14.949Z,100609.18
2018-05-14T19:51:40.933Z,100618.67
2018-05-14T19:54:06.934Z,100617.59
2018-05-14T19:56:32.891Z,100618.34
2018-05-14T19:58:58.876Z,100624.48
2018-05-14T20:01:24.840Z,100626.87
2018-05-14T20:03:50.808Z,100624.14
2018-05-14T20:06:16.769Z,100627.30
2018-05-14T20:08:42.727Z,100628.28
2018-05-14T20:11:08.700Z,100634.65
2018-05-14T20:13:34.649Z,100643.19
2018-05-14T20:16:00.608Z,100634.98
2018-05-14T20:18:26.573Z,100637.23
2018-05-14T20:20:52.696Z,100638.79
2018-05-14T20:23:18.688Z,100640.70
2018-05-14T20:25:44.679Z,100648.41
2018-05-14T20:28:10.646Z,100647.48
2018-05-14T20:30:36.619Z,100646.92
2018-05-14T20:33:02.586Z,100654.28
2018-05-14T20:35:28.561Z,100659.64
2018-05-14T20:37:54.551Z,100660.31
2018-05-14T20:40:20.511Z,100658.75
2018-05-14T20:42:46.460Z,100666.69
2018-05-14T20:45:12.570Z,100668.52
2018-05-14T20:47:38.470Z,100669.94
2018-05-14T20:50:04.486Z,100677.13
2018-05-14T20:52:30.445Z,100676.11
2018-05-14T20:54:56.408Z,100685.23
2018-05-14T20:57:26.568Z,100686.20
2018-05-14T20:59:52.605Z,100690.42
2018-05-14T21:02:18.639Z,100689.59
2018-05-14T21:04:44.621Z,100697.73
2018-05-14T21:09:42.158Z,100701.29
2018-05-14T21:12:09.200Z,100706.01
2018-05-14T21:14:35.189Z,100710.08
2018-05-14T21:17:01.195Z,100708.75
2018-05-14T21:19:27.169Z,100715.94
2018-05-14T21:21:53.157Z,100718.94
2018-05-14T21:24:19.110Z,100720.06
2018-05-14T21:26:45.075Z,100722.91
2018-05-14T21:29:11.026Z,100726.86
2018-05-14T21:31:36.975Z,100724.30
2018-05-14T21:34:02.974Z,100733.17
2018-05-14T21:36:28.933Z,100736.28
2018-05-14T21:38:54.937Z,100739.20
2018-05-14T21:41:20.888Z,100738.61
2018-05-14T21:43:47.029Z,100734.16
2018-05-14T21:46:12.996Z,100743.00
2018-05-14T21:48:38.945Z,100741.52
2018-05-14T21:51:08.425Z,100745.98
2018-05-14T21:53:34.377Z,100745.07
2018-05-14T21:56:00.328Z,100744.34
2018-05-14T21:58:26.297Z,100746.64
2018-05-14T22:00:52.249Z,100744.99
2018-05-14T22:03:18.244Z,100748.30
2018-05-14T22:05:44.328Z,100743.90
2018-05-14T22:08:10.285Z,100744.73
2018-05-14T22:10:36.263Z,100747.45
2018-05-14T22:13:02.223Z,100751.67
2018-05-14T22:15:28.193Z,100748.13
2018-05-14T22:20:29.381Z,100749.70
2018-05-14T22:22:55.358Z,100753.50
2018-05-14T22:25:21.334Z,100749.03
2018-05-14T22:27:47.396Z,100748.09
2018-05-14T22:30:13.350Z,100748.69
2018-05-14T22:32:39.335Z,100752.66
2018-05-14T22:37:37.908Z,100756.05
2018-05-14T22:40:03.889Z,100759.53
2018-05-14T22:42:29.859Z,100762.03
2018-05-14T22:44:55.816Z,100757.66
2018-05-14T22:47:21.797Z,100758.73
2018-05-14T22:49:47.744Z,100759.45
2018-05-14T22:52:13.742Z,100761.03
2018-05-14T22:54:39.702Z,100757.66
2018-05-14T22:57:05.674Z,100761.12
2018-05-14T22:59:31.710Z,100763.36
2018-05-14T23:01:57.640Z,100754.89
2018-05-14T23:04:23.597Z,100751.27
2018-05-14T23:06:49.573Z,100755.72
2018-05-14T23:09:15.536Z,100756.48
2018-05-14T23:11:41.506Z,100754.32
2018-05-14T23:14:07.462Z,100753.68
2018-05-14T23:16:33.434Z,100751.27
2018-05-14T23:18:59.408Z,100746.95
2018-05-14T23:21:25.363Z,100749.42
2018-05-14T23:23:51.319Z,100752.24
2018-05-14T23:26:17.273Z,100756.32
2018-05-14T23:28:43.242Z,100756.56
2018-05-14T23:31:09.193Z,100758.22
2018-05-14T23:33:35.193Z,100756.06
2018-05-14T23:36:01.206Z,100752.09
2018-05-14T23:38:27.142Z,100752.77
2018-05-14T23:40:53.129Z,100754.27
2018-05-14T23:43:19.103Z,100755.17
2018-05-14T23:45:45.062Z,100755.07
2018-05-14T23:48:11.006Z,100756.73
2018-05-14T23:50:36.966Z,100751.69
2018-05-14T23:53:02.949Z,100750.09
2018-05-14T23:55:28.909Z,100753.92
2018-05-14T23:57:54.895Z,100752.83
